Terminal Aerodrome Forecast
Issued by NWS

Home | Current Version | Previous Version | Text Only | Print | Product List | Glossary On
Versions: 1 2 3 4 5 6 7 8 9 10 11 12 13 14 15 16 17 18 19 20 21 22
000
FTUS43 KGRR 212300
TAFJXN
TAF
KJXN 212332Z 2200/2224 00000KT P6SM SCT045 BKN100
     FM220600 15002KT 4SM BR OVC015
     FM220900 00000KT 1 1/2SM BR OVC050
     FM221100 15002KT 1/4SM FG OVC001
     FM221400 16003KT 1 1/2SM BR BKN015
     FM221500 VRB03KT 4SM HZ BR BKN025
     FM221700 21002KT 6SM HZ BKN050=

USA.gov is the U.S. government's official web portal to all federal, state and local government web resources and services.